Time;durP1;ratioP1;P1;durP2;ratioP2;P2;SDS_P1;SDS_P2;PMS_P1;PMS_P2;Temp;Humidity;BMP_temperature;BMP_pressure;BME280_temperature;BME280_humidity;BME280_pressure;Samples;Min_cycle;Max_cycle;Signal;HPM_P1;HPM_P2
2022/05/16 00:00:24;;;;;;;;;;;13.30;99.90;;;;;;5033630;28;19990;-78
2022/05/16 00:02:50;;;;;;;;;;;13.30;99.90;;;;;;5034137;28;19925;-78
2022/05/16 00:05:15;;;;;;;;;;;13.30;99.90;;;;;;5051144;28;19929;-78
2022/05/16 00:07:41;;;;;;;;;;;13.20;99.90;;;;;;5034382;28;19936;-78
2022/05/16 00:10:07;;;;;;;;;;;13.30;99.90;;;;;;5052185;28;19924;-78
2022/05/16 00:12:33;;;;;;;;;;;13.30;99.90;;;;;;5051806;28;19924;-78
2022/05/16 00:14:58;;;;;;;;;;;13.30;99.90;;;;;;5033897;28;19972;-78
2022/05/16 00:17:24;;;;;;;;;;;13.30;99.90;;;;;;5033748;28;19971;-78
2022/05/16 00:19:50;;;;;;;;;;;13.20;99.90;;;;;;5017566;28;19925;-78
2022/05/16 00:22:15;;;;;;;;;;;13.20;99.90;;;;;;5051598;28;19931;-78
2022/05/16 00:24:41;;;;;;;;;;;13.20;99.90;;;;;;5051461;28;19928;-79
2022/05/16 00:27:07;;;;;;;;;;;13.20;99.90;;;;;;5050859;28;20058;-78
2022/05/16 00:29:33;;;;;;;;;;;13.20;99.90;;;;;;5033233;28;19972;-78
2022/05/16 00:31:58;;;;;;;;;;;13.10;99.90;;;;;;5051815;28;19929;-78
2022/05/16 00:34:24;;;;;;;;;;;13.10;99.90;;;;;;5033094;28;19925;-78
2022/05/16 00:36:50;;;;;;;;;;;13.10;99.90;;;;;;5034075;28;19925;-78
2022/05/16 00:39:16;;;;;;;;;;;13.10;99.90;;;;;;5051964;28;19966;-78
2022/05/16 00:41:42;;;;;;;;;;;13.10;99.90;;;;;;5034144;28;19958;-78
2022/05/16 00:44:08;;;;;;;;;;;13.10;99.90;;;;;;5051172;28;19928;-78
2022/05/16 00:46:33;;;;;;;;;;;13.10;99.90;;;;;;5051748;28;19925;-78
2022/05/16 00:49:01;;;;;;;;;;;13.10;99.90;;;;;;5032881;28;19963;-80
2022/05/16 00:51:34;;;;;;;;;;;13.10;99.90;;;;;;5051073;28;19971;-78
2022/05/16 00:54:10;;;;;;;;;;;13.10;99.90;;;;;;5018347;28;19929;-79
2022/05/16 00:56:36;;;;;;;;;;;13.10;99.90;;;;;;5033419;28;19925;-78
2022/05/16 00:59:01;;;;;;;;;;;13.10;99.90;;;;;;5050720;28;19951;-78
2022/05/16 01:06:57;;;;;;;;;;;13.10;99.90;;;;;;5033449;28;19935;-78
2022/05/16 01:09:22;;;;;;;;;;;13.10;99.90;;;;;;5051312;28;19929;-78
2022/05/16 01:11:48;;;;;;;;;;;13.10;99.90;;;;;;5033088;28;19924;-78
2022/05/16 01:14:33;;;;;;;;;;;13.10;99.90;;;;;;5033480;28;19925;-78
2022/05/16 01:16:58;;;;;;;;;;;13.10;99.90;;;;;;5050892;28;19925;-78
2022/05/16 01:19:24;;;;;;;;;;;13.00;99.90;;;;;;5033221;28;20024;-78
2022/05/16 01:21:49;;;;;;;;;;;13.00;99.90;;;;;;5051079;28;19925;-78
2022/05/16 01:24:16;;;;;;;;;;;13.00;99.90;;;;;;5051467;28;20051;-78
2022/05/16 01:26:42;;;;;;;;;;;12.90;99.90;;;;;;5050960;28;19929;-78
2022/05/16 01:29:09;;;;;;;;;;;13.00;99.90;;;;;;5032526;28;20172;-78
2022/05/16 01:31:34;;;;;;;;;;;12.90;99.90;;;;;;5050150;28;19929;-77
2022/05/16 01:34:00;;;;;;;;;;;12.90;99.90;;;;;;5033277;28;19925;-78
2022/05/16 01:36:25;;;;;;;;;;;12.90;99.90;;;;;;5054754;28;19982;-77
2022/05/16 01:38:51;;;;;;;;;;;12.90;99.90;;;;;;5054445;28;19928;-78
2022/05/16 01:41:19;;;;;;;;;;;12.90;99.90;;;;;;5036367;28;19990;-78
2022/05/16 01:43:46;;;;;;;;;;;12.90;99.90;;;;;;5036388;28;20039;-78
2022/05/16 01:46:14;;;;;;;;;;;12.90;99.90;;;;;;5054577;28;20397;-78
2022/05/16 01:48:40;;;;;;;;;;;12.80;99.90;;;;;;5033769;28;19932;-77
2022/05/16 01:51:07;;;;;;;;;;;12.80;99.90;;;;;;5053093;28;19925;-78
2022/05/16 01:53:33;;;;;;;;;;;12.80;99.90;;;;;;5036458;28;20360;-78
2022/05/16 01:55:59;;;;;;;;;;;12.80;99.90;;;;;;5052819;28;19928;-78
2022/05/16 01:58:25;;;;;;;;;;;12.80;99.90;;;;;;5035801;28;19925;-77
2022/05/16 02:00:51;;;;;;;;;;;12.80;99.90;;;;;;5053262;28;19939;-78
2022/05/16 02:03:17;;;;;;;;;;;12.80;99.90;;;;;;5035462;28;19928;-78
2022/05/16 02:05:43;;;;;;;;;;;12.80;99.90;;;;;;5054244;28;19925;-78
2022/05/16 02:08:09;;;;;;;;;;;12.70;99.90;;;;;;5054147;28;20003;-78
2022/05/16 02:10:34;;;;;;;;;;;12.70;99.90;;;;;;5053803;28;19925;-78
2022/05/16 02:13:03;;;;;;;;;;;12.70;99.90;;;;;;5035861;28;20531;-77
2022/05/16 02:15:31;;;;;;;;;;;12.70;99.90;;;;;;5036669;28;19931;-78
2022/05/16 02:17:57;;;;;;;;;;;12.60;99.90;;;;;;5035480;28;19950;-78
2022/05/16 02:20:22;;;;;;;;;;;12.60;99.90;;;;;;5036190;28;20373;-78
2022/05/16 02:25:33;;;;;;;;;;;12.60;99.90;;;;;;5016324;28;19921;-78
2022/05/16 02:27:59;;;;;;;;;;;12.60;99.90;;;;;;5039550;28;20024;-78
2022/05/16 02:30:25;;;;;;;;;;;12.60;99.90;;;;;;5035896;28;20408;-78
2022/05/16 02:32:50;;;;;;;;;;;12.60;99.90;;;;;;5034922;28;19933;-78
2022/05/16 02:35:16;;;;;;;;;;;12.50;99.90;;;;;;5019409;28;19948;-78
2022/05/16 02:37:42;;;;;;;;;;;12.50;99.90;;;;;;5036028;28;19925;-78
2022/05/16 02:40:08;;;;;;;;;;;12.50;99.90;;;;;;5035242;28;19928;-78
2022/05/16 02:42:34;;;;;;;;;;;12.40;99.90;;;;;;5036250;28;19925;-78
2022/05/16 02:44:59;;;;;;;;;;;12.50;99.90;;;;;;5034703;28;19947;-79
2022/05/16 02:47:25;;;;;;;;;;;12.40;99.90;;;;;;5035218;28;20010;-78
2022/05/16 02:49:51;;;;;;;;;;;12.40;99.90;;;;;;5035193;28;19933;-78
2022/05/16 02:52:17;;;;;;;;;;;12.40;99.90;;;;;;5035471;28;19932;-78
2022/05/16 02:54:43;;;;;;;;;;;12.40;99.90;;;;;;5052391;28;19998;-78
2022/05/16 02:57:09;;;;;;;;;;;12.30;99.90;;;;;;5052821;28;19975;-78
2022/05/16 02:59:35;;;;;;;;;;;12.30;99.90;;;;;;5035040;28;19925;-79
2022/05/16 03:02:01;;;;;;;;;;;12.20;99.90;;;;;;5052879;28;20391;-78
2022/05/16 03:04:27;;;;;;;;;;;12.30;99.90;;;;;;5052616;28;19928;-78
2022/05/16 03:06:53;;;;;;;;;;;12.30;99.90;;;;;;5035225;28;19929;-78
2022/05/16 03:09:18;;;;;;;;;;;12.30;99.90;;;;;;5018273;28;19929;-78
2022/05/16 03:11:44;;;;;;;;;;;12.30;99.90;;;;;;5035026;28;20448;-78
2022/05/16 03:14:11;;;;;;;;;;;12.20;99.90;;;;;;5035251;28;19924;-78
2022/05/16 03:16:37;;;;;;;;;;;12.20;99.90;;;;;;5034109;28;19951;-78
2022/05/16 03:19:03;;;;;;;;;;;12.20;99.90;;;;;;5052552;28;19925;-78
2022/05/16 03:21:29;;;;;;;;;;;12.20;99.90;;;;;;5034789;28;19986;-78
2022/05/16 03:23:56;;;;;;;;;;;12.20;99.90;;;;;;5052977;28;19925;-78
2022/05/16 03:26:21;;;;;;;;;;;12.20;99.90;;;;;;5033980;28;19968;-78
2022/05/16 03:28:47;;;;;;;;;;;12.20;99.90;;;;;;5035023;28;20345;-78
2022/05/16 03:31:12;;;;;;;;;;;12.10;99.90;;;;;;5018184;28;19925;-78
2022/05/16 03:33:38;;;;;;;;;;;12.10;99.90;;;;;;5052054;28;20384;-78
2022/05/16 03:36:04;;;;;;;;;;;12.10;99.90;;;;;;5033847;28;19932;-78
2022/05/16 03:41:13;;;;;;;;;;;12.10;99.90;;;;;;5045272;28;20066;-78
2022/05/16 03:43:39;;;;;;;;;;;12.10;99.90;;;;;;5034095;28;19929;-78
2022/05/16 03:46:05;;;;;;;;;;;12.10;99.90;;;;;;5034440;28;20427;-78
2022/05/16 03:48:31;;;;;;;;;;;12.10;99.90;;;;;;5051299;28;19933;-78
2022/05/16 03:50:56;;;;;;;;;;;12.10;99.90;;;;;;5034296;28;20329;-78
2022/05/16 03:53:22;;;;;;;;;;;12.10;99.90;;;;;;5032129;28;20231;-78
2022/05/16 03:55:48;;;;;;;;;;;12.10;99.90;;;;;;5033651;28;19970;-78
2022/05/16 03:58:13;;;;;;;;;;;12.10;99.90;;;;;;5051289;28;19960;-78
2022/05/16 04:00:39;;;;;;;;;;;12.00;99.90;;;;;;5052042;28;19925;-78
2022/05/16 04:03:05;;;;;;;;;;;12.00;99.90;;;;;;5050920;28;19948;-78
2022/05/16 04:05:30;;;;;;;;;;;12.10;99.90;;;;;;5034376;28;20536;-78
2022/05/16 04:07:56;;;;;;;;;;;12.00;99.90;;;;;;5034832;28;20368;-78
2022/05/16 04:10:23;;;;;;;;;;;12.00;99.90;;;;;;5050801;28;19925;-78
2022/05/16 04:12:49;;;;;;;;;;;12.00;99.90;;;;;;5051757;28;19928;-78
2022/05/16 04:15:14;;;;;;;;;;;12.00;99.90;;;;;;5034235;28;20272;-78
2022/05/16 04:17:41;;;;;;;;;;;12.10;99.90;;;;;;5034006;28;19924;-78
2022/05/16 04:20:07;;;;;;;;;;;12.00;99.90;;;;;;5017776;28;20384;-80
2022/05/16 04:22:33;;;;;;;;;;;12.10;99.90;;;;;;5052157;28;19932;-78
2022/05/16 04:24:58;;;;;;;;;;;12.00;99.90;;;;;;5033159;28;19929;-78
2022/05/16 04:27:24;;;;;;;;;;;12.10;99.90;;;;;;5033991;28;19932;-78
2022/05/16 04:29:49;;;;;;;;;;;12.10;99.90;;;;;;5052110;28;20399;-78
2022/05/16 04:32:15;;;;;;;;;;;12.10;99.90;;;;;;5050995;28;19929;-78
2022/05/16 04:34:41;;;;;;;;;;;12.10;99.90;;;;;;5033934;28;19948;-78
2022/05/16 04:37:07;;;;;;;;;;;12.10;99.90;;;;;;5051752;28;19960;-78
2022/05/16 04:39:32;;;;;;;;;;;12.10;99.90;;;;;;5033335;28;20002;-78
2022/05/16 04:44:42;;;;;;;;;;;12.20;99.90;;;;;;5051467;28;20396;-78
2022/05/16 04:47:08;;;;;;;;;;;12.20;99.90;;;;;;5033162;28;20010;-78
2022/05/16 04:49:34;;;;;;;;;;;12.20;99.90;;;;;;5033593;28;20016;-79
2022/05/16 04:52:00;;;;;;;;;;;12.20;99.90;;;;;;5040144;28;20007;-78
2022/05/16 04:54:26;;;;;;;;;;;12.30;99.90;;;;;;5032921;28;19933;-78
2022/05/16 04:56:52;;;;;;;;;;;12.30;99.90;;;;;;5051136;28;19933;-78
2022/05/16 04:59:18;;;;;;;;;;;12.40;99.90;;;;;;4993944;28;20144;-78
2022/05/16 05:01:43;;;;;;;;;;;12.40;99.90;;;;;;5010563;28;20313;-78
2022/05/16 05:04:09;;;;;;;;;;;12.50;99.90;;;;;;5011482;28;19926;-78
2022/05/16 05:06:35;;;;;;;;;;;12.60;99.90;;;;;;4993672;28;20386;-78
2022/05/16 05:09:00;;;;;;;;;;;12.70;99.90;;;;;;5011602;28;19977;-78
2022/05/16 05:16:54;;;;;;;;;;;13.00;99.90;;;;;;5032163;28;19932;-78
2022/05/16 05:19:19;;;;;;;;;;;13.10;99.90;;;;;;5012684;28;19925;-79
2022/05/16 05:21:45;;;;;;;;;;;13.30;99.90;;;;;;5013682;28;20127;-78
2022/05/16 05:24:10;;;;;;;;;;;13.40;99.90;;;;;;5014975;28;20429;-78
2022/05/16 05:26:36;;;;;;;;;;;13.40;99.90;;;;;;5013985;28;19984;-78
2022/05/16 05:29:02;;;;;;;;;;;13.40;99.90;;;;;;5012328;28;19929;-78
2022/05/16 05:31:28;;;;;;;;;;;13.50;99.90;;;;;;5013208;28;19926;-78
2022/05/16 05:33:54;;;;;;;;;;;13.50;99.90;;;;;;5013361;28;20016;-78
2022/05/16 05:36:20;;;;;;;;;;;13.50;99.90;;;;;;5013183;28;19925;-78
2022/05/16 05:38:51;;;;;;;;;;;13.50;99.90;;;;;;5012592;28;19937;-78
2022/05/16 05:41:16;;;;;;;;;;;13.50;99.90;;;;;;5013966;28;20332;-79
2022/05/16 05:43:42;;;;;;;;;;;13.50;99.90;;;;;;5013663;28;19972;-78
2022/05/16 05:46:07;;;;;;;;;;;13.40;99.90;;;;;;5012875;28;19971;-78
2022/05/16 05:48:33;;;;;;;;;;;13.50;99.90;;;;;;5014507;28;19926;-79
2022/05/16 05:50:59;;;;;;;;;;;13.50;99.90;;;;;;5012607;28;19980;-78
2022/05/16 05:53:24;;;;;;;;;;;13.50;99.90;;;;;;5014022;28;19929;-79
2022/05/16 05:55:50;;;;;;;;;;;13.60;99.90;;;;;;5012850;28;19932;-77
2022/05/16 05:58:16;;;;;;;;;;;13.60;99.90;;;;;;5021219;28;19929;-79
2022/05/16 06:00:42;;;;;;;;;;;13.70;99.90;;;;;;5032711;28;20014;-78
2022/05/16 06:03:08;;;;;;;;;;;13.90;99.90;;;;;;5034127;28;19984;-77
2022/05/16 06:05:34;;;;;;;;;;;14.00;99.90;;;;;;5015519;28;20020;-79
2022/05/16 06:07:59;;;;;;;;;;;14.10;99.90;;;;;;5032498;28;20249;-78
2022/05/16 06:10:25;;;;;;;;;;;14.20;99.90;;;;;;5032524;28;19953;-78
2022/05/16 06:12:51;;;;;;;;;;;14.40;99.90;;;;;;5033930;28;20443;-86
2022/05/16 06:15:16;;;;;;;;;;;14.40;99.90;;;;;;5000221;28;19975;-76
2022/05/16 06:17:43;;;;;;;;;;;14.50;99.90;;;;;;5015987;28;20276;-80
2022/05/16 06:20:10;;;;;;;;;;;14.60;99.90;;;;;;5032423;28;19968;-75
2022/05/16 06:22:37;;;;;;;;;;;14.60;99.90;;;;;;5033714;28;20239;-76
2022/05/16 06:25:31;;;;;;;;;;;14.70;99.90;;;;;;5033711;28;19925;-76
2022/05/16 06:28:17;;;;;;;;;;;14.80;99.90;;;;;;5033030;28;19984;-78
2022/05/16 06:30:44;;;;;;;;;;;14.90;99.90;;;;;;5022200;28;19929;-76
2022/05/16 06:33:10;;;;;;;;;;;14.90;99.90;;;;;;5033217;28;19925;-76
2022/05/16 06:35:36;;;;;;;;;;;14.90;99.90;;;;;;5031304;28;19965;-78
2022/05/16 06:38:08;;;;;;;;;;;15.00;99.90;;;;;;5029640;28;19952;-76
2022/05/16 06:40:33;;;;;;;;;;;15.00;99.90;;;;;;5032085;28;19964;-76
2022/05/16 06:42:59;;;;;;;;;;;15.00;99.90;;;;;;5028433;28;19929;-77
2022/05/16 06:45:25;;;;;;;;;;;15.10;99.90;;;;;;5029566;28;20016;-76
2022/05/16 06:47:50;;;;;;;;;;;15.20;99.90;;;;;;5033979;28;19925;-75
2022/05/16 06:50:16;;;;;;;;;;;15.30;99.90;;;;;;5032894;28;20488;-76
2022/05/16 06:52:43;;;;;;;;;;;15.40;99.90;;;;;;5031064;28;20389;-76
2022/05/16 06:55:08;;;;;;;;;;;15.50;99.90;;;;;;5016088;28;19962;-76
2022/05/16 06:57:34;;;;;;;;;;;15.60;99.90;;;;;;5038012;28;19925;-79
2022/05/16 07:00:00;;;;;;;;;;;15.70;99.90;;;;;;5034978;28;19924;-76
2022/05/16 07:02:25;;;;;;;;;;;15.90;99.90;;;;;;5039042;28;20112;-78
2022/05/16 07:04:51;;;;;;;;;;;16.10;99.90;;;;;;5038449;28;19928;-78
2022/05/16 07:07:17;;;;;;;;;;;16.30;99.90;;;;;;5056334;28;19979;-77
2022/05/16 07:09:42;;;;;;;;;;;16.40;99.90;;;;;;5056008;28;20329;-77
2022/05/16 07:12:08;;;;;;;;;;;16.50;99.90;;;;;;5039040;28;20046;-77
2022/05/16 07:14:34;;;;;;;;;;;16.50;99.90;;;;;;5022841;28;19925;-79
2022/05/16 07:17:00;;;;;;;;;;;16.50;99.90;;;;;;5057211;28;20011;-76
2022/05/16 07:19:29;;;;;;;;;;;16.50;99.90;;;;;;5038865;28;19971;-81
2022/05/16 07:21:55;;;;;;;;;;;16.60;99.90;;;;;;5036445;28;19925;-77
2022/05/16 07:24:20;;;;;;;;;;;16.70;99.90;;;;;;5034208;28;19936;-78
2022/05/16 07:29:31;;;;;;;;;;;17.00;99.90;;;;;;5020423;28;19928;-77
2022/05/16 07:31:57;;;;;;;;;;;17.10;99.90;;;;;;5018266;28;19931;-77
2022/05/16 07:34:23;;;;;;;;;;;17.20;99.90;;;;;;5034959;28;19925;-77
2022/05/16 07:36:48;;;;;;;;;;;17.30;99.90;;;;;;5047987;28;20387;-76
2022/05/16 07:39:14;;;;;;;;;;;17.50;99.90;;;;;;5027509;28;19954;-78
2022/05/16 07:41:39;;;;;;;;;;;17.60;99.90;;;;;;5036915;28;20342;-76
2022/05/16 07:44:05;;;;;;;;;;;17.70;99.90;;;;;;5039479;28;19936;-77
2022/05/16 07:46:31;;;;;;;;;;;17.90;99.90;;;;;;5052519;28;20015;-79
2022/05/16 07:48:56;;;;;;;;;;;18.00;99.90;;;;;;5017887;28;19924;-77
2022/05/16 07:51:22;;;;;;;;;;;18.10;99.90;;;;;;5033834;28;19931;-77
2022/05/16 07:53:47;;;;;;;;;;;18.10;99.90;;;;;;5034603;28;19947;-77
2022/05/16 07:56:13;;;;;;;;;;;18.20;99.90;;;;;;5051898;28;19932;-77
2022/05/16 07:58:38;;;;;;;;;;;18.30;99.90;;;;;;5033454;28;19925;-77
2022/05/16 08:01:04;;;;;;;;;;;18.40;99.90;;;;;;5037518;28;19968;-77
2022/05/16 08:03:30;;;;;;;;;;;18.50;99.90;;;;;;5032305;28;19980;-78
2022/05/16 08:05:57;;;;;;;;;;;18.60;99.90;;;;;;5032070;28;19971;-79
2022/05/16 08:11:09;;;;;;;;;;;18.90;99.90;;;;;;5035360;28;19931;-76
2022/05/16 08:13:35;;;;;;;;;;;18.90;99.90;;;;;;5050618;28;19924;-77
2022/05/16 08:16:00;;;;;;;;;;;19.00;99.90;;;;;;5052194;28;20418;-77
2022/05/16 08:18:26;;;;;;;;;;;19.00;99.90;;;;;;5033582;28;20059;-77
2022/05/16 08:20:52;;;;;;;;;;;19.00;99.90;;;;;;5015599;28;19932;-78
2022/05/16 08:23:21;;;;;;;;;;;19.20;99.90;;;;;;5039338;28;19978;-76
2022/05/16 08:25:47;;;;;;;;;;;19.20;99.90;;;;;;5030503;28;19932;-77
2022/05/16 08:28:13;;;;;;;;;;;19.40;99.90;;;;;;5026939;28;19924;-77
2022/05/16 08:30:39;;;;;;;;;;;19.50;99.90;;;;;;5050537;28;19947;-78
2022/05/16 08:33:05;;;;;;;;;;;19.70;99.90;;;;;;5033941;28;20365;-77
2022/05/16 08:35:31;;;;;;;;;;;20.00;99.90;;;;;;5033269;28;20364;-78
2022/05/16 08:40:41;;;;;;;;;;;20.40;99.90;;;;;;5032515;28;19932;-79
2022/05/16 08:43:12;;;;;;;;;;;20.50;99.90;;;;;;5052034;28;19970;-79
2022/05/16 08:45:39;;;;;;;;;;;20.60;99.90;;;;;;5036614;28;19931;-79
2022/05/16 08:48:28;;;;;;;;;;;20.60;99.90;;;;;;5038117;28;19955;-79
2022/05/16 08:51:13;;;;;;;;;;;20.60;99.90;;;;;;5037563;28;20410;-79
2022/05/16 08:53:41;;;;;;;;;;;20.50;99.90;;;;;;5043196;28;20011;-79
2022/05/16 08:56:10;;;;;;;;;;;20.50;99.90;;;;;;5055435;28;19925;-79
2022/05/16 08:58:49;;;;;;;;;;;20.60;99.90;;;;;;5021061;28;19955;-79
2022/05/16 09:01:35;;;;;;;;;;;20.60;99.90;;;;;;5037541;28;19925;-79
2022/05/16 09:04:04;;;;;;;;;;;20.60;99.90;;;;;;5037915;28;20010;-80
2022/05/16 09:06:32;;;;;;;;;;;20.70;99.90;;;;;;5055392;28;19924;-80
2022/05/16 09:09:13;;;;;;;;;;;20.60;99.90;;;;;;5018138;28;20113;-79
2022/05/16 09:11:38;;;;;;;;;;;20.70;99.90;;;;;;5032855;28;20007;-80
2022/05/16 09:14:06;;;;;;;;;;;20.90;99.90;;;;;;5019990;28;20058;-79
2022/05/16 09:16:49;;;;;;;;;;;20.90;99.90;;;;;;5037421;28;20377;-79
2022/05/16 09:19:21;;;;;;;;;;;21.10;99.90;;;;;;5034012;28;19932;-79
2022/05/16 09:21:51;;;;;;;;;;;21.40;99.90;;;;;;5017076;28;20285;-79
2022/05/16 09:24:24;;;;;;;;;;;21.60;99.90;;;;;;5034046;28;19952;-79
2022/05/16 09:27:04;;;;;;;;;;;21.90;99.90;;;;;;5055097;28;19924;-80
2022/05/16 09:29:32;;;;;;;;;;;22.10;99.90;;;;;;5055171;28;20011;-79
2022/05/16 09:32:06;;;;;;;;;;;22.50;99.90;;;;;;5020667;28;19978;-79
2022/05/16 09:34:32;;;;;;;;;;;22.80;99.90;;;;;;5054018;28;19932;-79
2022/05/16 09:36:57;;;;;;;;;;;22.90;99.90;;;;;;5054734;28;20319;-78
2022/05/16 09:39:24;;;;;;;;;;;23.10;99.90;;;;;;5037293;28;20016;-79
2022/05/16 09:41:55;;;;;;;;;;;23.30;99.90;;;;;;5036543;28;20361;-79
2022/05/16 09:44:21;;;;;;;;;;;23.50;99.90;;;;;;5036601;28;19928;-81
2022/05/16 09:46:47;;;;;;;;;;;23.60;99.90;;;;;;5036746;28;19948;-79
2022/05/16 09:49:12;;;;;;;;;;;23.80;99.90;;;;;;5036871;28;19931;-82
2022/05/16 09:51:51;;;;;;;;;;;23.80;99.90;;;;;;5019895;28;20380;-80
2022/05/16 09:54:23;;;;;;;;;;;23.70;99.30;;;;;;5035796;28;19925;-80
2022/05/16 09:56:56;;;;;;;;;;;23.60;98.20;;;;;;5034299;28;19925;-81
2022/05/16 09:59:34;;;;;;;;;;;23.70;99.10;;;;;;5049237;28;19929;-80
2022/05/16 10:02:14;;;;;;;;;;;23.70;99.90;;;;;;5034465;28;19928;-76
2022/05/16 10:04:42;;;;;;;;;;;23.80;99.20;;;;;;5037097;28;20289;-77
2022/05/16 10:07:08;;;;;;;;;;;23.70;98.90;;;;;;5053440;28;19933;-77
2022/05/16 10:09:36;;;;;;;;;;;23.90;99.90;;;;;;5054717;28;19993;-75
2022/05/16 10:12:02;;;;;;;;;;;24.00;99.20;;;;;;5036181;28;19983;-76
2022/05/16 10:14:28;;;;;;;;;;;24.20;99.20;;;;;;5036940;28;19991;-76
2022/05/16 10:16:55;;;;;;;;;;;24.30;96.60;;;;;;5053476;28;19929;-77
2022/05/16 10:19:23;;;;;;;;;;;24.40;97.40;;;;;;5053870;28;20372;-77
2022/05/16 10:22:01;;;;;;;;;;;24.30;96.50;;;;;;5035722;28;19925;-76
2022/05/16 10:24:32;;;;;;;;;;;24.30;95.30;;;;;;5036351;28;20071;-76
2022/05/16 10:26:59;;;;;;;;;;;24.30;95.90;;;;;;5035494;28;19928;-75
2022/05/16 10:29:30;;;;;;;;;;;24.10;96.90;;;;;;5054150;28;19921;-75
2022/05/16 10:34:52;;;;;;;;;;;23.90;98.10;;;;;;5036122;28;19925;-80
2022/05/16 10:37:19;;;;;;;;;;;23.80;98.40;;;;;;5036236;28;20019;-79
2022/05/16 10:40:00;;;;;;;;;;;23.60;97.30;;;;;;5020074;28;19978;-79
2022/05/16 10:42:30;;;;;;;;;;;23.50;97.30;;;;;;5035147;28;19932;-78
2022/05/16 10:44:58;;;;;;;;;;;23.40;97.10;;;;;;5036410;28;20357;-80
2022/05/16 10:47:25;;;;;;;;;;;23.30;97.40;;;;;;5033613;28;20325;-78
2022/05/16 10:50:02;;;;;;;;;;;23.20;99.40;;;;;;5053678;28;19928;-79
2022/05/16 10:52:46;;;;;;;;;;;23.20;99.50;;;;;;5032478;28;19925;-76
2022/05/16 10:55:12;;;;;;;;;;;23.20;99.90;;;;;;5025968;28;19929;-77
2022/05/16 10:57:38;;;;;;;;;;;23.30;99.90;;;;;;5032892;28;19925;-77
2022/05/16 11:00:08;;;;;;;;;;;23.40;99.80;;;;;;5032790;28;20399;-78
2022/05/16 11:02:34;;;;;;;;;;;23.50;99.90;;;;;;5030243;28;19925;-77
2022/05/16 11:05:09;;;;;;;;;;;23.60;99.90;;;;;;5036132;28;19925;-77
2022/05/16 11:07:35;;;;;;;;;;;23.70;99.90;;;;;;5052824;28;19924;-77
2022/05/16 11:10:06;;;;;;;;;;;23.80;99.90;;;;;;5034466;28;19936;-77
2022/05/16 11:12:39;;;;;;;;;;;24.10;99.90;;;;;;5052932;28;19929;-77
2022/05/16 11:15:15;;;;;;;;;;;24.30;99.90;;;;;;5036317;28;20015;-77
2022/05/16 11:17:47;;;;;;;;;;;24.40;98.60;;;;;;5052106;28;20384;-78
2022/05/16 11:20:36;;;;;;;;;;;24.50;97.60;;;;;;5018327;28;19925;-75
2022/05/16 11:23:05;;;;;;;;;;;24.60;98.60;;;;;;5035406;28;20293;-75
2022/05/16 11:25:43;;;;;;;;;;;24.60;97.90;;;;;;5024548;28;19928;-77
2022/05/16 11:28:25;;;;;;;;;;;24.70;98.80;;;;;;5039296;28;19929;-77
2022/05/16 11:30:50;;;;;;;;;;;24.80;98.00;;;;;;5035880;28;19921;-77
2022/05/16 11:33:34;;;;;;;;;;;24.70;97.20;;;;;;5035302;28;19935;-77
2022/05/16 11:36:19;;;;;;;;;;;24.80;96.90;;;;;;5052894;28;19968;-77
2022/05/16 11:38:45;;;;;;;;;;;25.20;97.50;;;;;;5052242;28;20443;-77
2022/05/16 11:41:30;;;;;;;;;;;25.50;98.00;;;;;;5034761;28;20023;-76
2022/05/16 11:44:16;;;;;;;;;;;26.00;96.10;;;;;;5017719;28;19925;-80
2022/05/16 11:47:07;;;;;;;;;;;26.30;94.20;;;;;;5034780;28;19928;-76
2022/05/16 11:49:38;;;;;;;;;;;26.50;94.30;;;;;;5035287;28;19932;-76
2022/05/16 11:52:04;;;;;;;;;;;26.50;94.10;;;;;;5035805;28;19928;-81
2022/05/16 11:54:34;;;;;;;;;;;26.30;94.40;;;;;;5035752;28;19955;-77
2022/05/16 12:03:00;;;;;;;;;;;26.10;94.30;;;;;;5034864;28;20063;-76
2022/05/16 12:05:26;;;;;;;;;;;26.10;95.80;;;;;;5041909;28;20394;-78
2022/05/16 12:08:14;;;;;;;;;;;26.00;95.50;;;;;;5053076;28;19929;-76
2022/05/16 12:10:55;;;;;;;;;;;25.70;95.80;;;;;;5014092;28;19925;-76
2022/05/16 12:13:27;;;;;;;;;;;25.50;93.30;;;;;;5035631;28;19920;-78
2022/05/16 12:16:19;;;;;;;;;;;25.40;94.80;;;;;;5035076;28;19924;-76
2022/05/16 12:19:08;;;;;;;;;;;25.30;95.20;;;;;;5031019;28;19925;-76
2022/05/16 12:21:34;;;;;;;;;;;25.10;96.10;;;;;;5034710;28;20419;-76
2022/05/16 12:24:05;;;;;;;;;;;25.00;97.40;;;;;;5019001;28;20356;-77
2022/05/16 12:26:33;;;;;;;;;;;24.80;98.00;;;;;;5052140;28;19929;-76
2022/05/16 12:29:08;;;;;;;;;;;24.60;99.30;;;;;;5035085;28;19929;-76
2022/05/16 12:31:39;;;;;;;;;;;24.50;99.20;;;;;;5035276;28;19979;-77
2022/05/16 12:34:05;;;;;;;;;;;24.50;99.20;;;;;;5034853;28;19975;-77
2022/05/16 12:36:30;;;;;;;;;;;24.50;98.30;;;;;;5034378;28;19964;-78
2022/05/16 12:39:14;;;;;;;;;;;24.50;97.90;;;;;;5017853;28;20397;-78
2022/05/16 12:41:47;;;;;;;;;;;24.70;97.80;;;;;;5033646;28;19928;-76
2022/05/16 12:44:13;;;;;;;;;;;24.70;97.30;;;;;;5051949;28;19925;-76
2022/05/16 12:46:57;;;;;;;;;;;24.70;97.70;;;;;;5034748;28;20277;-76
2022/05/16 12:49:43;;;;;;;;;;;25.00;97.80;;;;;;5052396;28;19924;-76
2022/05/16 12:52:28;;;;;;;;;;;25.30;99.30;;;;;;4998786;28;19964;-76
2022/05/16 12:55:14;;;;;;;;;;;25.60;98.10;;;;;;5032468;28;19925;-76
2022/05/16 12:57:59;;;;;;;;;;;25.60;98.00;;;;;;5032516;28;19932;-76
2022/05/16 13:00:27;;;;;;;;;;;25.80;99.00;;;;;;5052157;28;20516;-76
2022/05/16 13:03:29;;;;;;;;;;;25.60;97.20;;;;;;5034594;28;19924;-77
2022/05/16 13:05:58;;;;;;;;;;;25.70;97.50;;;;;;4989195;28;20009;-89
2022/05/16 13:08:33;;;;;;;;;;;25.60;97.50;;;;;;5032030;28;20026;-76
2022/05/16 13:11:17;;;;;;;;;;;25.50;98.60;;;;;;5031285;28;19933;-76
2022/05/16 13:13:46;;;;;;;;;;;25.40;97.00;;;;;;4998415;28;19925;-76
2022/05/16 13:16:14;;;;;;;;;;;25.40;97.90;;;;;;5031529;28;19955;-76
2022/05/16 13:18:45;;;;;;;;;;;25.70;98.90;;;;;;5028151;28;19932;-76
2022/05/16 13:21:13;;;;;;;;;;;25.70;99.40;;;;;;5050308;28;19929;-77
2022/05/16 13:23:39;;;;;;;;;;;26.00;98.10;;;;;;5041253;28;20030;-80
2022/05/16 13:31:38;;;;;;;;;;;27.80;94.80;;;;;;5035603;28;19929;-89
2022/05/16 13:34:04;;;;;;;;;;;28.40;92.50;;;;;;5038246;28;19975;-87
2022/05/16 13:36:30;;;;;;;;;;;28.80;91.30;;;;;;5037866;28;19925;-88
2022/05/16 13:38:57;;;;;;;;;;;28.50;90.30;;;;;;5037047;28;19929;-86
2022/05/16 13:41:24;;;;;;;;;;;28.40;90.20;;;;;;5020444;28;19928;-82
2022/05/16 13:43:51;;;;;;;;;;;28.20;89.50;;;;;;5054254;28;19979;-84
2022/05/16 13:46:16;;;;;;;;;;;28.30;90.20;;;;;;5035965;28;19925;-84
2022/05/16 13:48:42;;;;;;;;;;;28.40;90.40;;;;;;5021198;28;19928;-87
2022/05/16 13:51:09;;;;;;;;;;;28.10;93.50;;;;;;5020497;28;19925;-84
2022/05/16 13:53:37;;;;;;;;;;;27.20;97.10;;;;;;5035834;28;19921;-77
2022/05/16 13:56:03;;;;;;;;;;;26.90;99.10;;;;;;5035505;28;19935;-82
2022/05/16 13:58:33;;;;;;;;;;;26.30;99.90;;;;;;5014146;28;20011;-79
2022/05/16 14:01:16;;;;;;;;;;;26.50;99.90;;;;;;5032736;28;19933;-76
2022/05/16 14:03:48;;;;;;;;;;;26.50;99.20;;;;;;5033563;28;19929;-76
2022/05/16 14:06:26;;;;;;;;;;;26.40;99.60;;;;;;5031089;28;19925;-77
2022/05/16 14:08:52;;;;;;;;;;;26.10;99.10;;;;;;5033231;28;19975;-78
2022/05/16 14:11:19;;;;;;;;;;;26.30;99.90;;;;;;5016651;28;19929;-78
2022/05/16 14:13:51;;;;;;;;;;;26.50;99.30;;;;;;5033178;28;19948;-77
2022/05/16 14:16:19;;;;;;;;;;;26.30;99.90;;;;;;5031383;28;19926;-77
2022/05/16 14:18:44;;;;;;;;;;;26.10;99.90;;;;;;5029743;28;20377;-76
2022/05/16 14:21:15;;;;;;;;;;;26.20;99.90;;;;;;5027068;28;19929;-77
2022/05/16 14:23:43;;;;;;;;;;;26.30;99.90;;;;;;5032632;28;20703;-77
2022/05/16 14:26:10;;;;;;;;;;;26.20;99.90;;;;;;5033172;28;20366;-78
2022/05/16 14:28:42;;;;;;;;;;;25.90;99.90;;;;;;5034204;28;19929;-77
2022/05/16 14:31:25;;;;;;;;;;;25.60;99.90;;;;;;5032068;28;19925;-77
2022/05/16 14:33:52;;;;;;;;;;;25.30;99.90;;;;;;5032356;28;19933;-78
2022/05/16 14:36:44;;;;;;;;;;;24.90;99.90;;;;;;5032617;28;19929;-76
2022/05/16 14:39:19;;;;;;;;;;;24.40;99.90;;;;;;5004190;28;20378;-82
2022/05/16 14:41:48;;;;;;;;;;;24.10;99.90;;;;;;5015079;28;19925;-83
2022/05/16 14:44:19;;;;;;;;;;;24.10;99.90;;;;;;5015845;28;19925;-79
2022/05/16 14:46:55;;;;;;;;;;;24.10;99.90;;;;;;5015310;28;20020;-74
2022/05/16 14:49:21;;;;;;;;;;;24.10;99.90;;;;;;5032905;28;19925;-75
2022/05/16 14:51:47;;;;;;;;;;;24.30;99.90;;;;;;5033300;28;20003;-74
2022/05/16 14:54:21;;;;;;;;;;;24.60;99.90;;;;;;5032530;28;19925;-75
2022/05/16 14:56:47;;;;;;;;;;;24.90;99.90;;;;;;5033237;28;19972;-79
2022/05/16 14:59:13;;;;;;;;;;;24.90;99.90;;;;;;5015343;28;20026;-76
2022/05/16 15:04:23;;;;;;;;;;;24.80;99.90;;;;;;5024329;28;19932;-76
2022/05/16 15:06:49;;;;;;;;;;;24.60;99.90;;;;;;5037209;28;19925;-75
2022/05/16 15:09:16;;;;;;;;;;;24.40;99.90;;;;;;5032524;28;19925;-78